createdAt,value
2018-03-18T09:50:59.505Z,93524.09
2018-03-18T09:53:28.380Z,93516.91
2018-03-18T09:55:57.406Z,93522.47
2018-03-18T09:58:26.334Z,93521.65
2018-03-18T10:00:55.242Z,93522.09
2018-03-18T10:03:24.159Z,93539.55
2018-03-18T10:05:53.025Z,93541.36
2018-03-18T10:08:21.917Z,93547.97
2018-03-18T10:10:50.805Z,93559.03
2018-03-18T10:13:19.755Z,93564.31
2018-03-18T10:15:48.614Z,93562.14
2018-03-18T10:18:18.946Z,93559.24
2018-03-18T10:20:47.577Z,93555.64
2018-03-18T10:23:16.443Z,93567.02
2018-03-18T10:25:45.384Z,93574.42
2018-03-18T10:28:14.313Z,93566.67
2018-03-18T10:30:43.206Z,93577.95
2018-03-18T10:33:12.254Z,93587.30
2018-03-18T10:35:41.158Z,93578.14
2018-03-18T10:38:10.096Z,93570.66
2018-03-18T10:40:38.859Z,93546.06
2018-03-18T10:43:07.775Z,93562.95
2018-03-18T10:45:36.635Z,93578.06
2018-03-18T10:48:05.780Z,93580.42
2018-03-18T10:50:34.720Z,93576.41
2018-03-18T10:53:03.615Z,93582.25
2018-03-18T10:55:32.644Z,93593.86
2018-03-18T10:58:01.564Z,93605.55
2018-03-18T11:00:35.888Z,93593.75
2018-03-18T11:03:04.741Z,93591.31
2018-03-18T11:05:33.424Z,93585.34
2018-03-18T11:08:02.386Z,93596.91
2018-03-18T11:10:31.412Z,93595.31
2018-03-18T11:13:00.511Z,93601.59
2018-03-18T11:15:29.402Z,93600.82
2018-03-18T11:17:58.405Z,93600.33
2018-03-18T11:20:27.586Z,93598.27
2018-03-18T11:22:56.364Z,93604.78
2018-03-18T11:25:25.356Z,93609.62
2018-03-18T11:27:54.388Z,93605.47
2018-03-18T11:30:23.611Z,93601.06
2018-03-18T11:32:52.672Z,93600.28
2018-03-18T11:35:21.723Z,93606.09
2018-03-18T11:37:51.206Z,93609.41
2018-03-18T11:40:20.258Z,93604.91
2018-03-18T11:42:49.219Z,93622.77
2018-03-18T11:45:18.546Z,93622.44
2018-03-18T11:47:47.646Z,93622.23
2018-03-18T11:50:16.567Z,93617.52
2018-03-18T11:52:45.638Z,93606.27
2018-03-18T11:55:14.726Z,93609.97
2018-03-18T11:57:44.012Z,93607.35
2018-03-18T12:00:13.006Z,93604.89
2018-03-18T12:02:42.134Z,93612.38
2018-03-18T12:05:11.451Z,93615.80
2018-03-18T12:07:40.448Z,93601.52
2018-03-18T12:10:09.405Z,93603.74
2018-03-18T12:12:38.367Z,93605.98
2018-03-18T12:15:07.481Z,93615.03
2018-03-18T12:17:36.490Z,93620.89
2018-03-18T12:20:05.486Z,93620.55
2018-03-18T12:22:34.389Z,93612.63
2018-03-18T12:25:03.329Z,93617.31
2018-03-18T12:27:32.292Z,93608.66
2018-03-18T12:30:01.313Z,93613.86
2018-03-18T12:32:30.351Z,93604.61
2018-03-18T12:34:59.277Z,93608.14
2018-03-18T12:37:28.663Z,93616.52
2018-03-18T12:40:08.878Z,93621.37
2018-03-18T12:42:49.685Z,93620.69
2018-03-18T12:45:18.647Z,93617.50
2018-03-18T12:47:47.649Z,93621.11
2018-03-18T12:50:16.735Z,93617.36
2018-03-18T12:52:45.833Z,93624.73
2018-03-18T12:55:14.821Z,93630.13
2018-03-18T12:57:43.742Z,93633.57
2018-03-18T13:00:12.723Z,93636.62
2018-03-18T13:02:41.722Z,93634.70
2018-03-18T13:05:10.756Z,93641.14
2018-03-18T13:07:39.808Z,93637.79
2018-03-18T13:10:08.718Z,93648.47
2018-03-18T13:12:37.695Z,93659.67
2018-03-18T13:15:06.704Z,93664.44
2018-03-18T13:17:35.693Z,93665.91
2018-03-18T13:20:04.183Z,93674.22
2018-03-18T13:22:33.168Z,93677.75
2018-03-18T13:25:02.037Z,93687.63
2018-03-18T13:27:32.950Z,93692.49
2018-03-18T13:30:01.952Z,93694.61
2018-03-18T13:32:31.060Z,93698.52
2018-03-18T13:35:00.067Z,93700.64
2018-03-18T13:37:29.110Z,93704.23
2018-03-18T13:39:58.709Z,93712.27
2018-03-18T13:42:27.403Z,93721.23
2018-03-18T13:44:56.404Z,93718.22
2018-03-18T13:47:25.258Z,93725.63
2018-03-18T13:49:54.147Z,93728.85
2018-03-18T13:52:22.894Z,93723.39
2018-03-18T13:54:51.862Z,93726.00
2018-03-18T13:57:21.319Z,93719.28
2018-03-18T13:59:50.193Z,93728.06
2018-03-18T14:02:19.116Z,93719.78
2018-03-18T14:04:47.853Z,93733.41
2018-03-18T14:07:16.725Z,93727.06
2018-03-18T14:09:45.643Z,93734.67
2018-03-18T14:12:14.507Z,93732.86
2018-03-18T14:14:43.377Z,93733.76
2018-03-18T14:17:12.384Z,93726.92
2018-03-18T14:19:41.348Z,93726.13
2018-03-18T14:22:10.262Z,93726.23
2018-03-18T14:24:39.179Z,93723.88
2018-03-18T14:27:08.182Z,93718.98
2018-03-18T14:29:37.048Z,93720.72
2018-03-18T14:32:05.905Z,93725.98
2018-03-18T14:34:34.833Z,93734.10
2018-03-18T14:37:03.761Z,93731.88
2018-03-18T14:39:32.799Z,93745.98
2018-03-18T14:42:01.727Z,93739.45
2018-03-18T14:44:30.683Z,93751.16
2018-03-18T14:46:59.663Z,93747.78
2018-03-18T14:49:28.547Z,93743.68
2018-03-18T14:51:57.427Z,93746.19
2018-03-18T14:54:26.401Z,93743.25
2018-03-18T14:56:55.300Z,93741.95
2018-03-18T14:59:24.193Z,93750.08
2018-03-18T15:01:53.099Z,93753.30
2018-03-18T15:04:21.955Z,93759.59
2018-03-18T15:06:50.865Z,93759.08
2018-03-18T15:09:19.810Z,93755.95
2018-03-18T15:11:48.783Z,93769.45
2018-03-18T15:14:17.747Z,93772.88
2018-03-18T15:16:46.593Z,93773.23
2018-03-18T15:19:15.456Z,93766.97
2018-03-18T15:21:44.533Z,93772.75
2018-03-18T15:24:13.463Z,93776.81
2018-03-18T15:26:42.375Z,93785.02
2018-03-18T15:29:11.326Z,93795.99
2018-03-18T15:31:39.872Z,93799.92
2018-03-18T15:34:08.778Z,93801.24
2018-03-18T15:36:37.710Z,93799.34
2018-03-18T15:39:05.987Z,93804.09
2018-03-18T15:41:34.838Z,93797.42
2018-03-18T15:44:03.775Z,93802.98
2018-03-18T15:46:32.813Z,93805.89
2018-03-18T15:49:01.733Z,93805.70
2018-03-18T15:51:30.740Z,93813.25
2018-03-18T15:53:59.653Z,93807.09
2018-03-18T15:56:28.588Z,93823.03
2018-03-18T15:58:57.524Z,93828.37
2018-03-18T16:01:26.450Z,93827.88
2018-03-18T16:03:55.314Z,93825.25
2018-03-18T16:06:24.186Z,93825.53
2018-03-18T16:08:53.155Z,93828.47
2018-03-18T16:11:22.151Z,93832.50
2018-03-18T16:13:51.066Z,93844.38
2018-03-18T16:16:20.917Z,93849.44
2018-03-18T16:18:49.855Z,93855.95
2018-03-18T16:21:18.792Z,93852.53
2018-03-18T16:23:47.653Z,93856.55
2018-03-18T16:26:16.671Z,93855.75
2018-03-18T16:28:45.523Z,93856.56
2018-03-18T16:31:18.141Z,93865.22
2018-03-18T16:33:47.070Z,93866.50
2018-03-18T16:36:15.983Z,93870.58
2018-03-18T16:38:45.006Z,93865.69
2018-03-18T16:41:13.869Z,93870.30
2018-03-18T16:43:42.717Z,93873.61
2018-03-18T16:46:11.638Z,93868.98
2018-03-18T16:48:40.560Z,93873.98
2018-03-18T16:51:09.428Z,93873.36
2018-03-18T16:53:38.285Z,93886.41
2018-03-18T16:56:07.358Z,93884.52
2018-03-18T16:58:36.252Z,93881.73
2018-03-18T17:01:05.099Z,93879.67
2018-03-18T17:03:33.975Z,93890.30
2018-03-18T17:06:03.115Z,93888.02
2018-03-18T17:08:31.821Z,93898.61
2018-03-18T17:11:00.754Z,93902.87
2018-03-18T17:13:29.662Z,93901.05
2018-03-18T17:15:58.576Z,93899.81
2018-03-18T17:18:27.427Z,93906.75
2018-03-18T17:20:56.310Z,93910.33
2018-03-18T17:23:25.387Z,93917.39
2018-03-18T17:25:54.333Z,93912.84
2018-03-18T17:28:23.360Z,93913.98
2018-03-18T17:30:52.389Z,93917.54
2018-03-18T17:33:21.628Z,93926.00
2018-03-18T17:35:51.175Z,93924.39
2018-03-18T17:38:20.160Z,93925.13
2018-03-18T17:40:49.177Z,93926.39
2018-03-18T17:43:18.098Z,93927.19
2018-03-18T17:45:57.979Z,93931.51
2018-03-18T17:48:38.001Z,93937.86
2018-03-18T17:51:18.223Z,93946.83
2018-03-18T17:53:58.615Z,93946.91
2018-03-18T17:56:34.897Z,93952.45
2018-03-18T17:59:03.976Z,93949.30
2018-03-18T18:01:33.068Z,93950.66
2018-03-18T18:04:02.547Z,93953.18
2018-03-18T18:06:31.477Z,93961.56
2018-03-18T18:09:00.405Z,93969.80
2018-03-18T18:11:29.445Z,93965.83
2018-03-18T18:13:58.328Z,93965.31
2018-03-18T18:16:27.215Z,93959.30
2018-03-18T18:18:55.976Z,93957.84
2018-03-18T18:21:25.026Z,93968.44
2018-03-18T18:23:54.071Z,93970.84
2018-03-18T18:26:22.979Z,93963.71
2018-03-18T18:28:52.016Z,93957.02
2018-03-18T18:31:20.959Z,93960.33
2018-03-18T18:33:50.174Z,93969.81
2018-03-18T18:36:19.236Z,93980.36
2018-03-18T18:38:48.156Z,93977.91
2018-03-18T18:41:17.181Z,93981.83
2018-03-18T18:43:46.054Z,93970.89
2018-03-18T18:46:15.022Z,93982.33
2018-03-18T18:48:43.920Z,93992.35
2018-03-18T18:51:12.674Z,93997.77
2018-03-18T18:53:41.401Z,94003.75
2018-03-18T18:56:10.392Z,94001.72
2018-03-18T18:58:39.258Z,94010.89
2018-03-18T19:01:08.354Z,94018.00
2018-03-18T19:03:37.262Z,94011.00
2018-03-18T19:06:06.193Z,94015.00
2018-03-18T19:08:35.096Z,94024.31
2018-03-18T19:11:04.004Z,94014.08
2018-03-18T19:13:33.124Z,94015.41
2018-03-18T19:16:02.064Z,94011.69
2018-03-18T19:18:31.067Z,94000.74
2018-03-18T19:21:00.030Z,93993.57
2018-03-18T19:23:29.099Z,93994.48
2018-03-18T19:25:57.953Z,93992.70
2018-03-18T19:28:26.927Z,93996.42
2018-03-18T19:30:55.864Z,93996.11
2018-03-18T19:33:24.775Z,94005.09
2018-03-18T19:35:53.846Z,94009.86
2018-03-18T19:38:22.930Z,94014.09
2018-03-18T19:40:51.986Z,94018.96
2018-03-18T19:43:20.938Z,94021.20
2018-03-18T19:45:49.875Z,94022.95
2018-03-18T19:48:18.837Z,94026.63
2018-03-18T19:50:47.762Z,94017.00
2018-03-18T19:53:16.694Z,94015.05
2018-03-18T19:55:45.858Z,94019.55
2018-03-18T19:58:14.827Z,94026.64
2018-03-18T20:00:43.807Z,94024.13
2018-03-18T20:03:14.863Z,94024.95
2018-03-18T20:05:43.832Z,94021.78
2018-03-18T20:08:12.744Z,94025.63
2018-03-18T20:10:41.802Z,94026.10
2018-03-18T20:13:10.786Z,94031.14
2018-03-18T20:15:39.715Z,94040.45
2018-03-18T20:18:08.572Z,94043.26
2018-03-18T20:20:37.676Z,94037.97
2018-03-18T20:23:06.667Z,94041.97
2018-03-18T20:25:35.767Z,94048.67
2018-03-18T20:28:04.836Z,94044.47
2018-03-18T20:30:33.847Z,94046.40
2018-03-18T20:33:02.725Z,94049.22
2018-03-18T20:35:31.670Z,94053.59
2018-03-18T20:38:00.599Z,94064.08
2018-03-18T20:40:29.621Z,94069.96
2018-03-18T20:42:58.505Z,94073.57
2018-03-18T20:45:27.407Z,94072.46
2018-03-18T20:47:56.325Z,94084.05
2018-03-18T20:50:25.231Z,94078.13
2018-03-18T20:52:54.100Z,94073.70
2018-03-18T20:55:23.034Z,94080.56
2018-03-18T20:57:51.903Z,94074.52
2018-03-18T21:00:21.026Z,94064.95
2018-03-18T21:02:50.013Z,94058.20
2018-03-18T21:05:18.886Z,94061.53
2018-03-18T21:07:47.810Z,94059.95
2018-03-18T21:10:16.798Z,94060.20
2018-03-18T21:12:45.701Z,94063.08
2018-03-18T21:15:14.642Z,94068.42
2018-03-18T21:17:43.450Z,94062.13
2018-03-18T21:20:12.487Z,94069.36
2018-03-18T21:22:41.476Z,94059.73
2018-03-18T21:25:10.458Z,94067.33
2018-03-18T21:27:39.388Z,94066.75
2018-03-18T21:30:08.267Z,94061.19
2018-03-18T21:32:37.207Z,94059.38
2018-03-18T21:35:06.168Z,94058.14
2018-03-18T21:37:34.987Z,94064.50
2018-03-18T21:40:04.264Z,94064.39
2018-03-18T21:42:33.188Z,94066.53
2018-03-18T21:45:02.044Z,94066.88
2018-03-18T21:47:31.109Z,94073.36
2018-03-18T21:49:59.806Z,94067.62
2018-03-18T21:52:28.756Z,94068.64
2018-03-18T21:54:57.638Z,94064.45
2018-03-18T21:57:26.661Z,94075.19
2018-03-18T21:59:55.563Z,94072.14
2018-03-18T22:02:24.514Z,94075.38
2018-03-18T22:04:53.644Z,94073.97
2018-03-18T22:07:22.886Z,94072.59
2018-03-18T22:09:51.858Z,94070.77
2018-03-18T22:12:20.761Z,94068.91
2018-03-18T22:14:49.685Z,94073.13
2018-03-18T22:17:18.730Z,94081.00
2018-03-18T22:19:47.687Z,94079.10
2018-03-18T22:22:16.708Z,94081.81
2018-03-18T22:24:45.770Z,94078.09
2018-03-18T22:27:14.742Z,94065.38
2018-03-18T22:30:39.002Z,94075.17
2018-03-18T22:33:09.213Z,94068.70
2018-03-18T22:35:39.055Z,94074.89
2018-03-18T22:38:09.198Z,94064.33
2018-03-18T22:40:39.389Z,94054.23
2018-03-18T22:43:09.287Z,94053.23
2018-03-18T22:45:39.333Z,94065.13
2018-03-18T22:48:09.450Z,94059.38
2018-03-18T22:50:39.567Z,94056.30
2018-03-18T22:53:09.634Z,94047.69
2018-03-18T22:55:39.738Z,94059.29
2018-03-18T22:58:09.821Z,94049.20
2018-03-18T23:00:40.215Z,94031.80
2018-03-18T23:03:08.135Z,94035.02
2018-03-18T23:05:35.170Z,94044.30
2018-03-18T23:08:02.132Z,94052.73
2018-03-18T23:10:28.703Z,94051.28
2018-03-18T23:12:55.727Z,94046.53
2018-03-18T23:15:22.742Z,94061.84
2018-03-18T23:17:57.540Z,94059.13
2018-03-18T23:20:24.281Z,94052.71
2018-03-18T23:22:50.922Z,94056.19
2018-03-18T23:25:17.469Z,94052.95
2018-03-18T23:27:44.344Z,94051.97
2018-03-18T23:30:11.185Z,94061.30
2018-03-18T23:32:38.730Z,94056.06
2018-03-18T23:35:05.540Z,94060.08
2018-03-18T23:37:32.066Z,94054.85
2018-03-18T23:39:58.794Z,94047.09
2018-03-18T23:42:25.558Z,94052.00
2018-03-18T23:44:52.502Z,94041.45
2018-03-18T23:47:30.395Z,94045.23
2018-03-18T23:49:57.478Z,94025.92
2018-03-18T23:52:24.778Z,94028.19
2018-03-18T23:54:51.909Z,94029.47
2018-03-18T23:57:19.266Z,94018.75
2018-03-18T23:59:47.335Z,94017.11
